sensor_id;sensor_type;location;lat;lon;timestamp;temperature;humidity
24664;DHT22;12791;50.992;13.788;2024-01-30T00:00:18;3.00;99.90
24664;DHT22;12791;50.992;13.788;2024-01-30T00:02:44;3.30;99.90
24664;DHT22;12791;50.992;13.788;2024-01-30T00:05:13;3.00;99.90
24664;DHT22;12791;50.992;13.788;2024-01-30T00:07:40;3.50;99.90
24664;DHT22;12791;50.992;13.788;2024-01-30T00:10:06;3.40;99.90
24664;DHT22;12791;50.992;13.788;2024-01-30T00:12:33;3.40;99.90
24664;DHT22;12791;50.992;13.788;2024-01-30T00:15:00;3.10;99.90
24664;DHT22;12791;50.992;13.788;2024-01-30T00:17:26;3.30;99.90
24664;DHT22;12791;50.992;13.788;2024-01-30T00:19:53;3.30;99.90
24664;DHT22;12791;50.992;13.788;2024-01-30T00:22:21;3.70;99.90
24664;DHT22;12791;50.992;13.788;2024-01-30T00:24:47;3.40;99.90
24664;DHT22;12791;50.992;13.788;2024-01-30T00:27:14;3.80;99.90
24664;DHT22;12791;50.992;13.788;2024-01-30T00:29:41;3.00;99.90
24664;DHT22;12791;50.992;13.788;2024-01-30T00:32:08;3.30;99.90
24664;DHT22;12791;50.992;13.788;2024-01-30T00:34:34;3.30;99.90
24664;DHT22;12791;50.992;13.788;2024-01-30T00:37:01;2.90;99.90
24664;DHT22;12791;50.992;13.788;2024-01-30T00:39:29;3.20;99.90
24664;DHT22;12791;50.992;13.788;2024-01-30T00:41:55;3.20;99.90
24664;DHT22;12791;50.992;13.788;2024-01-30T00:44:22;2.90;99.90
24664;DHT22;12791;50.992;13.788;2024-01-30T00:46:48;3.40;99.90
24664;DHT22;12791;50.992;13.788;2024-01-30T00:49:15;3.00;99.90
24664;DHT22;12791;50.992;13.788;2024-01-30T00:51:42;3.40;99.90
24664;DHT22;12791;50.992;13.788;2024-01-30T00:54:08;3.20;99.90
24664;DHT22;12791;50.992;13.788;2024-01-30T00:56:36;3.70;99.90
24664;DHT22;12791;50.992;13.788;2024-01-30T00:59:03;3.40;99.90
24664;DHT22;12791;50.992;13.788;2024-01-30T01:01:29;3.10;99.90
24664;DHT22;12791;50.992;13.788;2024-01-30T01:03:56;2.80;99.90
24664;DHT22;12791;50.992;13.788;2024-01-30T01:06:23;3.60;99.90
24664;DHT22;12791;50.992;13.788;2024-01-30T01:08:50;3.10;99.90
24664;DHT22;12791;50.992;13.788;2024-01-30T01:11:16;3.20;99.90
24664;DHT22;12791;50.992;13.788;2024-01-30T01:13:44;2.80;99.90
24664;DHT22;12791;50.992;13.788;2024-01-30T01:16:11;3.20;99.90
24664;DHT22;12791;50.992;13.788;2024-01-30T01:18:37;2.70;99.90
24664;DHT22;12791;50.992;13.788;2024-01-30T01:21:04;2.80;99.90
24664;DHT22;12791;50.992;13.788;2024-01-30T01:23:31;3.50;99.90
24664;DHT22;12791;50.992;13.788;2024-01-30T01:25:57;2.60;99.90
24664;DHT22;12791;50.992;13.788;2024-01-30T01:28:25;3.40;99.90
24664;DHT22;12791;50.992;13.788;2024-01-30T01:30:53;3.50;99.90
24664;DHT22;12791;50.992;13.788;2024-01-30T01:33:24;3.30;99.90
24664;DHT22;12791;50.992;13.788;2024-01-30T01:35:50;3.10;99.90
24664;DHT22;12791;50.992;13.788;2024-01-30T01:38:17;3.20;99.90
24664;DHT22;12791;50.992;13.788;2024-01-30T01:40:44;3.60;99.90
24664;DHT22;12791;50.992;13.788;2024-01-30T01:43:11;3.10;99.90
24664;DHT22;12791;50.992;13.788;2024-01-30T01:45:37;3.10;99.90
24664;DHT22;12791;50.992;13.788;2024-01-30T01:48:06;3.60;99.90
24664;DHT22;12791;50.992;13.788;2024-01-30T01:50:33;3.20;99.90
24664;DHT22;12791;50.992;13.788;2024-01-30T01:53:00;3.10;99.90
24664;DHT22;12791;50.992;13.788;2024-01-30T01:55:29;3.40;99.90
24664;DHT22;12791;50.992;13.788;2024-01-30T01:57:57;3.30;99.90
24664;DHT22;12791;50.992;13.788;2024-01-30T02:00:24;3.00;99.90
24664;DHT22;12791;50.992;13.788;2024-01-30T02:02:51;3.40;99.90
24664;DHT22;12791;50.992;13.788;2024-01-30T02:05:21;3.20;99.90
24664;DHT22;12791;50.992;13.788;2024-01-30T02:07:47;2.70;99.90
24664;DHT22;12791;50.992;13.788;2024-01-30T02:10:14;2.70;99.90
24664;DHT22;12791;50.992;13.788;2024-01-30T02:12:41;3.60;99.90
24664;DHT22;12791;50.992;13.788;2024-01-30T02:15:07;3.20;99.90
24664;DHT22;12791;50.992;13.788;2024-01-30T02:17:34;3.10;99.90
24664;DHT22;12791;50.992;13.788;2024-01-30T02:20:01;3.20;99.90
24664;DHT22;12791;50.992;13.788;2024-01-30T02:22:30;3.50;99.90
24664;DHT22;12791;50.992;13.788;2024-01-30T02:24:57;3.70;99.90
24664;DHT22;12791;50.992;13.788;2024-01-30T02:27:24;3.00;99.90
24664;DHT22;12791;50.992;13.788;2024-01-30T02:29:50;2.90;99.90
24664;DHT22;12791;50.992;13.788;2024-01-30T02:32:17;3.40;99.90
24664;DHT22;12791;50.992;13.788;2024-01-30T02:34:44;2.80;99.90
24664;DHT22;12791;50.992;13.788;2024-01-30T02:37:10;2.70;99.90
24664;DHT22;12791;50.992;13.788;2024-01-30T02:39:38;2.60;99.90
24664;DHT22;12791;50.992;13.788;2024-01-30T02:42:05;3.40;99.90
24664;DHT22;12791;50.992;13.788;2024-01-30T02:44:32;3.10;99.90
24664;DHT22;12791;50.992;13.788;2024-01-30T02:46:59;3.10;99.90
24664;DHT22;12791;50.992;13.788;2024-01-30T02:49:25;3.00;99.90
24664;DHT22;12791;50.992;13.788;2024-01-30T02:51:53;3.00;99.90
24664;DHT22;12791;50.992;13.788;2024-01-30T02:54:20;3.60;99.90
24664;DHT22;12791;50.992;13.788;2024-01-30T02:56:48;3.60;99.90
24664;DHT22;12791;50.992;13.788;2024-01-30T02:59:14;3.00;99.90
24664;DHT22;12791;50.992;13.788;2024-01-30T03:01:44;3.00;99.90
24664;DHT22;12791;50.992;13.788;2024-01-30T03:04:11;3.00;99.90
24664;DHT22;12791;50.992;13.788;2024-01-30T03:06:38;3.00;99.90
24664;DHT22;12791;50.992;13.788;2024-01-30T03:09:05;2.90;99.90
24664;DHT22;12791;50.992;13.788;2024-01-30T03:11:32;2.90;99.90
24664;DHT22;12791;50.992;13.788;2024-01-30T03:14:00;3.00;99.90
24664;DHT22;12791;50.992;13.788;2024-01-30T03:16:26;3.30;99.90
24664;DHT22;12791;50.992;13.788;2024-01-30T03:18:53;2.70;99.90
24664;DHT22;12791;50.992;13.788;2024-01-30T03:21:19;2.60;99.90
24664;DHT22;12791;50.992;13.788;2024-01-30T03:23:47;2.70;99.90
24664;DHT22;12791;50.992;13.788;2024-01-30T03:26:13;3.20;99.90
24664;DHT22;12791;50.992;13.788;2024-01-30T03:28:40;2.40;99.90
24664;DHT22;12791;50.992;13.788;2024-01-30T03:31:08;3.30;99.90
24664;DHT22;12791;50.992;13.788;2024-01-30T03:33:36;2.90;99.90
24664;DHT22;12791;50.992;13.788;2024-01-30T03:36:04;3.10;99.90
24664;DHT22;12791;50.992;13.788;2024-01-30T03:38:31;2.50;99.90
24664;DHT22;12791;50.992;13.788;2024-01-30T03:40:59;3.00;99.90
24664;DHT22;12791;50.992;13.788;2024-01-30T03:43:26;3.10;99.90
24664;DHT22;12791;50.992;13.788;2024-01-30T03:45:52;2.80;99.90
24664;DHT22;12791;50.992;13.788;2024-01-30T03:48:21;2.80;99.90
24664;DHT22;12791;50.992;13.788;2024-01-30T03:50:47;3.10;99.90
24664;DHT22;12791;50.992;13.788;2024-01-30T03:53:14;2.70;99.90
24664;DHT22;12791;50.992;13.788;2024-01-30T03:55:41;2.80;99.90
24664;DHT22;12791;50.992;13.788;2024-01-30T03:58:07;3.20;99.90
24664;DHT22;12791;50.992;13.788;2024-01-30T04:00:34;2.80;99.90
24664;DHT22;12791;50.992;13.788;2024-01-30T04:03:00;3.20;99.90
24664;DHT22;12791;50.992;13.788;2024-01-30T04:05:29;2.80;99.90
24664;DHT22;12791;50.992;13.788;2024-01-30T04:07:55;3.00;99.90
24664;DHT22;12791;50.992;13.788;2024-01-30T04:10:22;3.00;99.90
24664;DHT22;12791;50.992;13.788;2024-01-30T04:12:49;2.80;99.90
24664;DHT22;12791;50.992;13.788;2024-01-30T04:15:17;3.10;99.90
24664;DHT22;12791;50.992;13.788;2024-01-30T04:17:43;2.80;99.90
24664;DHT22;12791;50.992;13.788;2024-01-30T04:20:13;3.30;99.90
24664;DHT22;12791;50.992;13.788;2024-01-30T04:22:42;2.70;99.90
24664;DHT22;12791;50.992;13.788;2024-01-30T04:25:09;2.40;99.90
24664;DHT22;12791;50.992;13.788;2024-01-30T04:27:35;3.00;99.90
24664;DHT22;12791;50.992;13.788;2024-01-30T04:30:03;3.00;99.90
24664;DHT22;12791;50.992;13.788;2024-01-30T04:32:29;3.10;99.90
24664;DHT22;12791;50.992;13.788;2024-01-30T04:34:56;2.80;99.90
24664;DHT22;12791;50.992;13.788;2024-01-30T04:37:23;2.90;99.90
24664;DHT22;12791;50.992;13.788;2024-01-30T04:39:51;2.80;99.90
24664;DHT22;12791;50.992;13.788;2024-01-30T04:42:17;2.80;99.90
24664;DHT22;12791;50.992;13.788;2024-01-30T04:44:44;3.00;99.90
24664;DHT22;12791;50.992;13.788;2024-01-30T04:47:11;3.40;99.90
24664;DHT22;12791;50.992;13.788;2024-01-30T04:49:38;2.70;99.90
24664;DHT22;12791;50.992;13.788;2024-01-30T04:52:05;2.70;99.90
24664;DHT22;12791;50.992;13.788;2024-01-30T04:54:31;2.70;99.90
24664;DHT22;12791;50.992;13.788;2024-01-30T04:56:59;2.70;99.90
24664;DHT22;12791;50.992;13.788;2024-01-30T04:59:26;2.60;99.90
24664;DHT22;12791;50.992;13.788;2024-01-30T05:01:53;2.40;99.90
24664;DHT22;12791;50.992;13.788;2024-01-30T05:04:19;2.60;99.90
24664;DHT22;12791;50.992;13.788;2024-01-30T05:06:47;2.40;99.90
24664;DHT22;12791;50.992;13.788;2024-01-30T05:09:14;3.00;99.90
24664;DHT22;12791;50.992;13.788;2024-01-30T05:11:41;3.20;99.90
24664;DHT22;12791;50.992;13.788;2024-01-30T05:14:09;2.70;99.90
24664;DHT22;12791;50.992;13.788;2024-01-30T05:16:36;2.60;99.90
24664;DHT22;12791;50.992;13.788;2024-01-30T05:19:03;2.50;99.90
24664;DHT22;12791;50.992;13.788;2024-01-30T05:21:30;3.20;99.90
24664;DHT22;12791;50.992;13.788;2024-01-30T05:23:56;3.00;99.90
24664;DHT22;12791;50.992;13.788;2024-01-30T05:26:23;2.70;99.90
24664;DHT22;12791;50.992;13.788;2024-01-30T05:28:50;3.10;99.90
24664;DHT22;12791;50.992;13.788;2024-01-30T05:31:18;2.60;99.90
24664;DHT22;12791;50.992;13.788;2024-01-30T05:33:44;2.60;99.90
24664;DHT22;12791;50.992;13.788;2024-01-30T05:36:12;2.80;99.90
24664;DHT22;12791;50.992;13.788;2024-01-30T05:38:39;2.60;99.90
24664;DHT22;12791;50.992;13.788;2024-01-30T05:41:06;2.70;99.90
24664;DHT22;12791;50.992;13.788;2024-01-30T05:43:32;2.10;99.90
24664;DHT22;12791;50.992;13.788;2024-01-30T05:45:59;3.10;99.90
24664;DHT22;12791;50.992;13.788;2024-01-30T05:48:27;2.70;99.90
24664;DHT22;12791;50.992;13.788;2024-01-30T05:50:54;2.60;99.90
24664;DHT22;12791;50.992;13.788;2024-01-30T05:53:20;3.00;99.90
24664;DHT22;12791;50.992;13.788;2024-01-30T05:55:47;2.80;99.90
24664;DHT22;12791;50.992;13.788;2024-01-30T05:58:14;3.00;99.90
24664;DHT22;12791;50.992;13.788;2024-01-30T06:00:40;2.60;99.90
24664;DHT22;12791;50.992;13.788;2024-01-30T06:03:07;3.00;99.90
24664;DHT22;12791;50.992;13.788;2024-01-30T06:05:35;2.10;99.90
24664;DHT22;12791;50.992;13.788;2024-01-30T06:08:02;2.20;99.90
24664;DHT22;12791;50.992;13.788;2024-01-30T06:10:28;2.50;99.90
24664;DHT22;12791;50.992;13.788;2024-01-30T06:12:55;2.00;99.90
24664;DHT22;12791;50.992;13.788;2024-01-30T06:15:22;2.60;99.90
24664;DHT22;12791;50.992;13.788;2024-01-30T06:17:48;2.50;99.90
24664;DHT22;12791;50.992;13.788;2024-01-30T06:20:15;2.60;99.90
24664;DHT22;12791;50.992;13.788;2024-01-30T06:22:43;2.60;99.90
24664;DHT22;12791;50.992;13.788;2024-01-30T06:25:09;2.80;99.90
24664;DHT22;12791;50.992;13.788;2024-01-30T06:27:37;2.90;99.90
24664;DHT22;12791;50.992;13.788;2024-01-30T06:30:05;2.80;99.90
24664;DHT22;12791;50.992;13.788;2024-01-30T06:32:31;2.90;99.90
24664;DHT22;12791;50.992;13.788;2024-01-30T06:34:59;2.80;99.90
24664;DHT22;12791;50.992;13.788;2024-01-30T06:37:26;2.30;99.90
24664;DHT22;12791;50.992;13.788;2024-01-30T06:39:54;2.70;99.90
24664;DHT22;12791;50.992;13.788;2024-01-30T06:42:20;3.00;99.90
24664;DHT22;12791;50.992;13.788;2024-01-30T06:44:47;2.80;99.90
24664;DHT22;12791;50.992;13.788;2024-01-30T06:47:13;2.70;99.90
24664;DHT22;12791;50.992;13.788;2024-01-30T06:49:40;3.20;99.90
24664;DHT22;12791;50.992;13.788;2024-01-30T06:52:07;3.10;99.90
24664;DHT22;12791;50.992;13.788;2024-01-30T06:54:34;2.80;99.90
24664;DHT22;12791;50.992;13.788;2024-01-30T06:57:02;2.80;99.90
24664;DHT22;12791;50.992;13.788;2024-01-30T06:59:29;3.00;99.90
24664;DHT22;12791;50.992;13.788;2024-01-30T07:01:55;3.00;99.90
24664;DHT22;12791;50.992;13.788;2024-01-30T07:04:22;2.80;99.90
24664;DHT22;12791;50.992;13.788;2024-01-30T07:06:49;3.10;99.90
24664;DHT22;12791;50.992;13.788;2024-01-30T07:09:15;2.90;99.90
24664;DHT22;12791;50.992;13.788;2024-01-30T07:11:42;2.70;99.90
24664;DHT22;12791;50.992;13.788;2024-01-30T07:14:10;3.30;99.90
24664;DHT22;12791;50.992;13.788;2024-01-30T07:16:37;3.30;99.90
24664;DHT22;12791;50.992;13.788;2024-01-30T07:19:03;2.90;99.90
24664;DHT22;12791;50.992;13.788;2024-01-30T07:21:30;3.20;99.90
24664;DHT22;12791;50.992;13.788;2024-01-30T07:23:56;3.40;99.90
24664;DHT22;12791;50.992;13.788;2024-01-30T07:26:23;2.60;99.90
24664;DHT22;12791;50.992;13.788;2024-01-30T07:28:50;2.80;99.90
24664;DHT22;12791;50.992;13.788;2024-01-30T07:31:18;2.50;99.90
24664;DHT22;12791;50.992;13.788;2024-01-30T07:33:46;3.10;99.90
24664;DHT22;12791;50.992;13.788;2024-01-30T07:36:12;2.60;99.90
24664;DHT22;12791;50.992;13.788;2024-01-30T07:38:39;3.10;99.90
24664;DHT22;12791;50.992;13.788;2024-01-30T07:41:05;3.20;99.90
24664;DHT22;12791;50.992;13.788;2024-01-30T07:43:33;2.60;99.90
24664;DHT22;12791;50.992;13.788;2024-01-30T07:46:00;3.20;99.90
24664;DHT22;12791;50.992;13.788;2024-01-30T07:48:29;3.70;99.90
24664;DHT22;12791;50.992;13.788;2024-01-30T07:50:56;3.70;99.90
24664;DHT22;12791;50.992;13.788;2024-01-30T07:53:23;3.30;99.90
24664;DHT22;12791;50.992;13.788;2024-01-30T07:55:49;3.20;99.90
24664;DHT22;12791;50.992;13.788;2024-01-30T07:58:16;3.10;99.90
24664;DHT22;12791;50.992;13.788;2024-01-30T08:00:43;3.60;99.90
24664;DHT22;12791;50.992;13.788;2024-01-30T08:03:09;3.20;99.90
24664;DHT22;12791;50.992;13.788;2024-01-30T08:05:38;3.50;99.90
24664;DHT22;12791;50.992;13.788;2024-01-30T08:08:05;3.70;99.90
24664;DHT22;12791;50.992;13.788;2024-01-30T08:10:31;3.80;99.90
24664;DHT22;12791;50.992;13.788;2024-01-30T08:12:58;3.50;99.90
24664;DHT22;12791;50.992;13.788;2024-01-30T08:15:25;3.30;99.90
24664;DHT22;12791;50.992;13.788;2024-01-30T08:17:52;4.00;99.90
24664;DHT22;12791;50.992;13.788;2024-01-30T08:20:23;4.00;99.90
24664;DHT22;12791;50.992;13.788;2024-01-30T08:22:51;4.10;99.90
24664;DHT22;12791;50.992;13.788;2024-01-30T08:25:17;3.90;99.90
24664;DHT22;12791;50.992;13.788;2024-01-30T08:27:44;4.00;99.90
24664;DHT22;12791;50.992;13.788;2024-01-30T08:30:11;4.50;99.90
24664;DHT22;12791;50.992;13.788;2024-01-30T08:32:38;4.20;99.90
24664;DHT22;12791;50.992;13.788;2024-01-30T08:35:05;4.60;99.90
24664;DHT22;12791;50.992;13.788;2024-01-30T08:37:32;4.50;99.90
24664;DHT22;12791;50.992;13.788;2024-01-30T08:40:00;4.30;99.90
24664;DHT22;12791;50.992;13.788;2024-01-30T08:42:27;4.30;99.90
24664;DHT22;12791;50.992;13.788;2024-01-30T08:44:54;4.30;99.90
24664;DHT22;12791;50.992;13.788;2024-01-30T08:47:21;4.40;99.90
24664;DHT22;12791;50.992;13.788;2024-01-30T08:49:48;4.40;99.90
24664;DHT22;12791;50.992;13.788;2024-01-30T08:52:14;4.90;99.90
24664;DHT22;12791;50.992;13.788;2024-01-30T08:54:41;4.50;99.90
24664;DHT22;12791;50.992;13.788;2024-01-30T08:57:09;4.60;99.90
24664;DHT22;12791;50.992;13.788;2024-01-30T08:59:35;4.60;99.90
24664;DHT22;12791;50.992;13.788;2024-01-30T09:02:02;4.70;99.90
24664;DHT22;12791;50.992;13.788;2024-01-30T09:04:29;4.70;99.90
24664;DHT22;12791;50.992;13.788;2024-01-30T09:06:56;4.80;99.90
24664;DHT22;12791;50.992;13.788;2024-01-30T09:09:22;4.90;99.90
24664;DHT22;12791;50.992;13.788;2024-01-30T09:11:49;5.00;99.90
24664;DHT22;12791;50.992;13.788;2024-01-30T09:14:17;4.90;99.90
24664;DHT22;12791;50.992;13.788;2024-01-30T09:16:43;5.00;99.90
24664;DHT22;12791;50.992;13.788;2024-01-30T09:19:10;4.60;99.90
24664;DHT22;12791;50.992;13.788;2024-01-30T09:21:37;5.30;99.90
24664;DHT22;12791;50.992;13.788;2024-01-30T09:24:04;5.30;99.90
24664;DHT22;12791;50.992;13.788;2024-01-30T09:26:31;5.40;99.90
24664;DHT22;12791;50.992;13.788;2024-01-30T09:28:58;5.30;99.90
24664;DHT22;12791;50.992;13.788;2024-01-30T09:31:25;5.60;99.90
24664;DHT22;12791;50.992;13.788;2024-01-30T09:33:52;5.40;99.90
24664;DHT22;12791;50.992;13.788;2024-01-30T09:36:19;5.00;99.60
24664;DHT22;12791;50.992;13.788;2024-01-30T09:38:46;5.40;99.90
24664;DHT22;12791;50.992;13.788;2024-01-30T09:41:13;5.40;99.30
24664;DHT22;12791;50.992;13.788;2024-01-30T09:43:39;5.50;99.70
24664;DHT22;12791;50.992;13.788;2024-01-30T09:46:09;5.60;98.80
24664;DHT22;12791;50.992;13.788;2024-01-30T09:48:40;5.10;98.60
24664;DHT22;12791;50.992;13.788;2024-01-30T09:51:07;5.20;98.20
24664;DHT22;12791;50.992;13.788;2024-01-30T09:53:35;5.50;97.50
24664;DHT22;12791;50.992;13.788;2024-01-30T09:56:02;5.60;97.10
24664;DHT22;12791;50.992;13.788;2024-01-30T09:58:29;5.50;97.40
24664;DHT22;12791;50.992;13.788;2024-01-30T10:00:55;5.20;97.10
24664;DHT22;12791;50.992;13.788;2024-01-30T10:03:22;5.40;97.20
24664;DHT22;12791;50.992;13.788;2024-01-30T10:05:51;5.40;96.40
24664;DHT22;12791;50.992;13.788;2024-01-30T10:08:19;5.40;96.50
24664;DHT22;12791;50.992;13.788;2024-01-30T10:10:46;5.70;96.80
24664;DHT22;12791;50.992;13.788;2024-01-30T10:13:12;5.70;96.80
24664;DHT22;12791;50.992;13.788;2024-01-30T10:15:39;5.40;96.90
24664;DHT22;12791;50.992;13.788;2024-01-30T10:18:06;5.00;96.70
24664;DHT22;12791;50.992;13.788;2024-01-30T10:20:32;5.40;96.90
24664;DHT22;12791;50.992;13.788;2024-01-30T10:23:01;5.70;97.50
24664;DHT22;12791;50.992;13.788;2024-01-30T10:25:27;5.60;97.30
24664;DHT22;12791;50.992;13.788;2024-01-30T10:27:54;5.40;97.00
24664;DHT22;12791;50.992;13.788;2024-01-30T10:30:21;5.50;96.90
24664;DHT22;12791;50.992;13.788;2024-01-30T10:32:48;5.50;96.50
24664;DHT22;12791;50.992;13.788;2024-01-30T10:35:14;4.90;95.90
24664;DHT22;12791;50.992;13.788;2024-01-30T10:37:43;5.40;96.30
24664;DHT22;12791;50.992;13.788;2024-01-30T10:40:13;5.70;96.60
24664;DHT22;12791;50.992;13.788;2024-01-30T10:42:43;5.20;96.00
24664;DHT22;12791;50.992;13.788;2024-01-30T10:45:10;5.50;95.80
24664;DHT22;12791;50.992;13.788;2024-01-30T10:47:39;5.70;95.70
24664;DHT22;12791;50.992;13.788;2024-01-30T10:50:08;5.70;96.00
24664;DHT22;12791;50.992;13.788;2024-01-30T10:52:36;5.50;96.00
24664;DHT22;12791;50.992;13.788;2024-01-30T10:55:04;5.50;96.00
24664;DHT22;12791;50.992;13.788;2024-01-30T10:57:34;5.50;96.10
24664;DHT22;12791;50.992;13.788;2024-01-30T11:00:04;5.40;96.00
24664;DHT22;12791;50.992;13.788;2024-01-30T11:02:36;5.60;96.50
24664;DHT22;12791;50.992;13.788;2024-01-30T11:05:04;5.50;96.20
24664;DHT22;12791;50.992;13.788;2024-01-30T11:07:31;5.00;96.10
24664;DHT22;12791;50.992;13.788;2024-01-30T11:10:02;5.60;96.20
24664;DHT22;12791;50.992;13.788;2024-01-30T11:12:31;5.60;96.20
24664;DHT22;12791;50.992;13.788;2024-01-30T11:15:04;5.70;96.00
24664;DHT22;12791;50.992;13.788;2024-01-30T11:17:45;5.70;95.80
24664;DHT22;12791;50.992;13.788;2024-01-30T11:20:14;5.60;94.40
24664;DHT22;12791;50.992;13.788;2024-01-30T11:22:42;5.90;94.50
24664;DHT22;12791;50.992;13.788;2024-01-30T11:25:14;5.70;94.10
24664;DHT22;12791;50.992;13.788;2024-01-30T11:27:41;5.60;93.80
24664;DHT22;12791;50.992;13.788;2024-01-30T11:30:10;5.80;94.50
24664;DHT22;12791;50.992;13.788;2024-01-30T11:32:36;5.60;94.00
24664;DHT22;12791;50.992;13.788;2024-01-30T11:35:04;5.60;93.70
24664;DHT22;12791;50.992;13.788;2024-01-30T11:37:32;5.70;94.20
24664;DHT22;12791;50.992;13.788;2024-01-30T11:40:04;5.80;93.70
24664;DHT22;12791;50.992;13.788;2024-01-30T11:42:32;5.60;94.10
24664;DHT22;12791;50.992;13.788;2024-01-30T11:45:00;5.60;93.30
24664;DHT22;12791;50.992;13.788;2024-01-30T11:47:28;5.70;93.20
24664;DHT22;12791;50.992;13.788;2024-01-30T11:49:55;5.80;93.70
24664;DHT22;12791;50.992;13.788;2024-01-30T11:52:22;5.30;93.20
24664;DHT22;12791;50.992;13.788;2024-01-30T11:54:48;5.60;93.10
24664;DHT22;12791;50.992;13.788;2024-01-30T11:57:15;5.60;93.20
24664;DHT22;12791;50.992;13.788;2024-01-30T11:59:42;5.60;93.10
24664;DHT22;12791;50.992;13.788;2024-01-30T12:02:08;5.90;92.70
24664;DHT22;12791;50.992;13.788;2024-01-30T12:04:36;5.90;92.20
24664;DHT22;12791;50.992;13.788;2024-01-30T12:07:03;5.80;92.30
24664;DHT22;12791;50.992;13.788;2024-01-30T12:09:30;5.70;92.30
24664;DHT22;12791;50.992;13.788;2024-01-30T12:11:56;5.70;91.20
24664;DHT22;12791;50.992;13.788;2024-01-30T12:14:23;5.70;91.40
24664;DHT22;12791;50.992;13.788;2024-01-30T12:16:50;5.70;90.20
24664;DHT22;12791;50.992;13.788;2024-01-30T12:19:23;5.70;90.20
24664;DHT22;12791;50.992;13.788;2024-01-30T12:21:57;5.70;89.60
24664;DHT22;12791;50.992;13.788;2024-01-30T12:24:24;5.90;88.50
24664;DHT22;12791;50.992;13.788;2024-01-30T12:26:51;5.80;88.80
24664;DHT22;12791;50.992;13.788;2024-01-30T12:29:19;5.80;89.10
24664;DHT22;12791;50.992;13.788;2024-01-30T12:31:46;5.80;88.40
24664;DHT22;12791;50.992;13.788;2024-01-30T12:34:13;6.20;89.50
24664;DHT22;12791;50.992;13.788;2024-01-30T12:36:40;5.70;89.60
24664;DHT22;12791;50.992;13.788;2024-01-30T12:39:11;6.00;88.20
24664;DHT22;12791;50.992;13.788;2024-01-30T12:41:38;5.30;88.50
24664;DHT22;12791;50.992;13.788;2024-01-30T12:44:04;5.90;89.10
24664;DHT22;12791;50.992;13.788;2024-01-30T12:46:31;5.70;89.10
24664;DHT22;12791;50.992;13.788;2024-01-30T12:48:57;5.80;88.60
24664;DHT22;12791;50.992;13.788;2024-01-30T12:51:24;5.80;88.20
24664;DHT22;12791;50.992;13.788;2024-01-30T12:53:51;5.70;88.70
24664;DHT22;12791;50.992;13.788;2024-01-30T12:56:19;5.60;87.90
24664;DHT22;12791;50.992;13.788;2024-01-30T12:58:45;5.10;88.10
24664;DHT22;12791;50.992;13.788;2024-01-30T13:01:12;5.20;87.80
24664;DHT22;12791;50.992;13.788;2024-01-30T13:03:38;6.10;89.50
24664;DHT22;12791;50.992;13.788;2024-01-30T13:06:05;5.50;90.00
24664;DHT22;12791;50.992;13.788;2024-01-30T13:08:32;5.50;90.00
24664;DHT22;12791;50.992;13.788;2024-01-30T13:10:58;5.50;90.00
24664;DHT22;12791;50.992;13.788;2024-01-30T13:13:26;5.50;90.40
24664;DHT22;12791;50.992;13.788;2024-01-30T13:15:53;5.70;90.40
24664;DHT22;12791;50.992;13.788;2024-01-30T13:18:20;5.50;90.40
24664;DHT22;12791;50.992;13.788;2024-01-30T13:20:47;5.50;90.40
24664;DHT22;12791;50.992;13.788;2024-01-30T13:23:13;5.40;90.30
24664;DHT22;12791;50.992;13.788;2024-01-30T13:25:40;5.10;90.20
24664;DHT22;12791;50.992;13.788;2024-01-30T13:28:06;5.50;90.70
24664;DHT22;12791;50.992;13.788;2024-01-30T13:30:35;5.70;91.00
24664;DHT22;12791;50.992;13.788;2024-01-30T13:33:01;5.60;90.80
24664;DHT22;12791;50.992;13.788;2024-01-30T13:35:28;6.10;91.60
24664;DHT22;12791;50.992;13.788;2024-01-30T13:37:55;5.50;91.20
24664;DHT22;12791;50.992;13.788;2024-01-30T13:40:21;5.50;91.40
24664;DHT22;12791;50.992;13.788;2024-01-30T13:42:48;5.40;91.60
24664;DHT22;12791;50.992;13.788;2024-01-30T13:45:15;5.70;91.50
24664;DHT22;12791;50.992;13.788;2024-01-30T13:47:42;5.20;91.40
24664;DHT22;12791;50.992;13.788;2024-01-30T13:50:09;5.30;91.60
24664;DHT22;12791;50.992;13.788;2024-01-30T13:52:40;5.30;92.10
24664;DHT22;12791;50.992;13.788;2024-01-30T13:55:07;5.30;92.20
24664;DHT22;12791;50.992;13.788;2024-01-30T13:57:35;5.30;92.10
24664;DHT22;12791;50.992;13.788;2024-01-30T14:00:02;5.30;92.20
24664;DHT22;12791;50.992;13.788;2024-01-30T14:02:30;5.50;92.40
24664;DHT22;12791;50.992;13.788;2024-01-30T14:04:59;5.60;92.30
24664;DHT22;12791;50.992;13.788;2024-01-30T14:07:25;5.40;92.00
24664;DHT22;12791;50.992;13.788;2024-01-30T14:09:52;5.10;92.30
24664;DHT22;12791;50.992;13.788;2024-01-30T14:12:18;4.80;91.70
24664;DHT22;12791;50.992;13.788;2024-01-30T14:14:45;5.10;91.50
24664;DHT22;12791;50.992;13.788;2024-01-30T14:17:12;5.10;92.00
24664;DHT22;12791;50.992;13.788;2024-01-30T14:19:38;5.00;92.30
24664;DHT22;12791;50.992;13.788;2024-01-30T14:22:06;5.10;92.40
24664;DHT22;12791;50.992;13.788;2024-01-30T14:24:33;4.60;92.40
24664;DHT22;12791;50.992;13.788;2024-01-30T14:27:00;5.30;92.70
24664;DHT22;12791;50.992;13.788;2024-01-30T14:29:26;4.70;92.40
24664;DHT22;12791;50.992;13.788;2024-01-30T14:31:53;4.90;92.90
24664;DHT22;12791;50.992;13.788;2024-01-30T14:34:20;4.40;93.30
24664;DHT22;12791;50.992;13.788;2024-01-30T14:36:47;4.90;93.60
24664;DHT22;12791;50.992;13.788;2024-01-30T14:39:15;4.90;93.70
24664;DHT22;12791;50.992;13.788;2024-01-30T14:41:41;4.90;93.60
24664;DHT22;12791;50.992;13.788;2024-01-30T14:44:08;4.80;93.60
24664;DHT22;12791;50.992;13.788;2024-01-30T14:46:35;5.00;93.90
24664;DHT22;12791;50.992;13.788;2024-01-30T14:49:02;5.10;94.00
24664;DHT22;12791;50.992;13.788;2024-01-30T14:51:30;4.80;93.70
24664;DHT22;12791;50.992;13.788;2024-01-30T14:53:58;4.70;93.80
24664;DHT22;12791;50.992;13.788;2024-01-30T14:56:26;4.70;94.40
24664;DHT22;12791;50.992;13.788;2024-01-30T14:58:53;4.80;94.80
24664;DHT22;12791;50.992;13.788;2024-01-30T15:01:20;4.60;95.00
24664;DHT22;12791;50.992;13.788;2024-01-30T15:03:46;4.90;95.50
24664;DHT22;12791;50.992;13.788;2024-01-30T15:06:13;4.90;96.30
24664;DHT22;12791;50.992;13.788;2024-01-30T15:08:39;4.60;96.20
24664;DHT22;12791;50.992;13.788;2024-01-30T15:11:06;4.90;96.20
24664;DHT22;12791;50.992;13.788;2024-01-30T15:13:34;4.70;96.10
24664;DHT22;12791;50.992;13.788;2024-01-30T15:16:02;4.40;96.60
24664;DHT22;12791;50.992;13.788;2024-01-30T15:18:31;4.50;97.10
24664;DHT22;12791;50.992;13.788;2024-01-30T15:20:57;4.60;97.60
24664;DHT22;12791;50.992;13.788;2024-01-30T15:23:24;4.60;98.40
24664;DHT22;12791;50.992;13.788;2024-01-30T15:25:50;4.20;98.90
24664;DHT22;12791;50.992;13.788;2024-01-30T15:28:17;4.20;98.70